sensor_id;sensor_type;location;lat;lon;timestamp;pressure;altitude;pressure_sealevel;temperature;humidity
64739;BME280;51175;51.186;0.276;2023-06-14T00:00:15;101169.75;;;23.35;38.20
64739;BME280;51175;51.186;0.276;2023-06-14T00:00:45;101168.94;;;23.35;38.43
64739;BME280;51175;51.186;0.276;2023-06-14T00:01:16;101170.06;;;23.34;38.21
64739;BME280;51175;51.186;0.276;2023-06-14T00:01:47;101170.06;;;23.34;38.24
64739;BME280;51175;51.186;0.276;2023-06-14T00:02:18;101175.78;;;23.32;38.48
64739;BME280;51175;51.186;0.276;2023-06-14T00:02:49;101168.81;;;23.31;38.43
64739;BME280;51175;51.186;0.276;2023-06-14T00:03:19;101170.72;;;23.30;38.50
64739;BME280;51175;51.186;0.276;2023-06-14T00:03:52;101168.03;;;23.30;38.42
64739;BME280;51175;51.186;0.276;2023-06-14T00:04:22;101175.00;;;23.31;38.13
64739;BME280;51175;51.186;0.276;2023-06-14T00:04:55;101170.72;;;23.30;38.30
64739;BME280;51175;51.186;0.276;2023-06-14T00:05:25;101172.63;;;23.30;38.35
64739;BME280;51175;51.186;0.276;2023-06-14T00:05:56;101166.44;;;23.29;38.56
64739;BME280;51175;51.186;0.276;2023-06-14T00:06:28;101172.63;;;23.30;38.54
64739;BME280;51175;51.186;0.276;2023-06-14T00:06:59;101169.47;;;23.28;38.00
64739;BME280;51175;51.186;0.276;2023-06-14T00:07:40;101168.69;;;23.27;38.09
64739;BME280;51175;51.186;0.276;2023-06-14T00:08:14;101165.53;;;23.25;37.92
64739;BME280;51175;51.186;0.276;2023-06-14T00:08:45;101170.94;;;23.25;37.95
64739;BME280;51175;51.186;0.276;2023-06-14T00:09:15;101168.22;;;23.25;37.96
64739;BME280;51175;51.186;0.276;2023-06-14T00:09:47;101168.22;;;23.25;37.98
64739;BME280;51175;51.186;0.276;2023-06-14T00:10:18;101164.75;;;23.25;38.15
64739;BME280;51175;51.186;0.276;2023-06-14T00:10:48;101169.69;;;23.23;37.94
64739;BME280;51175;51.186;0.276;2023-06-14T00:11:18;101163.50;;;23.22;37.85
64739;BME280;51175;51.186;0.276;2023-06-14T00:11:49;101176.19;;;23.22;37.79
64739;BME280;51175;51.186;0.276;2023-06-14T00:12:19;101172.72;;;23.21;37.74
64739;BME280;51175;51.186;0.276;2023-06-14T00:12:50;101171.13;;;23.20;37.89
64739;BME280;51175;51.186;0.276;2023-06-14T00:13:20;101171.13;;;23.20;37.81
64739;BME280;51175;51.186;0.276;2023-06-14T00:13:51;101168.44;;;23.20;38.05
64739;BME280;51175;51.186;0.276;2023-06-14T00:14:21;101169.56;;;23.19;37.99
64739;BME280;51175;51.186;0.276;2023-06-14T00:14:51;101169.56;;;23.19;38.19
64739;BME280;51175;51.186;0.276;2023-06-14T00:15:22;101166.84;;;23.19;38.09
64739;BME280;51175;51.186;0.276;2023-06-14T00:15:53;101174.94;;;23.19;37.77
64739;BME280;51175;51.186;0.276;2023-06-14T00:16:25;101169.56;;;23.19;37.78
64739;BME280;51175;51.186;0.276;2023-06-14T00:16:55;101168.00;;;23.18;37.86
64739;BME280;51175;51.186;0.276;2023-06-14T00:17:28;101168.00;;;23.18;37.98
64739;BME280;51175;51.186;0.276;2023-06-14T00:18:02;101162.94;;;23.16;38.14
64739;BME280;51175;51.186;0.276;2023-06-14T00:18:33;101170.22;;;23.16;38.04
64739;BME280;51175;51.186;0.276;2023-06-14T00:19:03;101172.91;;;23.16;38.36
64739;BME280;51175;51.186;0.276;2023-06-14T00:19:34;101169.41;;;23.15;37.96
64739;BME280;51175;51.186;0.276;2023-06-14T00:20:07;101164.34;;;23.14;38.02
64739;BME280;51175;51.186;0.276;2023-06-14T00:20:37;101166.28;;;23.13;37.65
64739;BME280;51175;51.186;0.276;2023-06-14T00:21:08;101164.34;;;23.14;37.81
64739;BME280;51175;51.186;0.276;2023-06-14T00:21:38;101168.97;;;23.13;37.96
64739;BME280;51175;51.186;0.276;2023-06-14T00:22:09;101168.19;;;23.13;37.81
64739;BME280;51175;51.186;0.276;2023-06-14T00:22:39;101166.63;;;23.12;37.91
64739;BME280;51175;51.186;0.276;2023-06-14T00:23:10;101166.63;;;23.12;37.87
64739;BME280;51175;51.186;0.276;2023-06-14T00:23:40;101171.19;;;23.11;37.72
64739;BME280;51175;51.186;0.276;2023-06-14T00:24:11;101169.63;;;23.10;37.74
64739;BME280;51175;51.186;0.276;2023-06-14T00:24:41;101168.50;;;23.11;38.02
64739;BME280;51175;51.186;0.276;2023-06-14T00:25:11;101172.66;;;23.09;37.86
64739;BME280;51175;51.186;0.276;2023-06-14T00:25:42;101181.50;;;23.09;37.88
64739;BME280;51175;51.186;0.276;2023-06-14T00:26:12;101169.97;;;23.09;37.62
64739;BME280;51175;51.186;0.276;2023-06-14T00:26:43;101166.47;;;23.08;37.54
64739;BME280;51175;51.186;0.276;2023-06-14T00:27:13;101171.06;;;23.07;37.42
64739;BME280;51175;51.186;0.276;2023-06-14T00:27:43;101176.44;;;23.07;37.61
64739;BME280;51175;51.186;0.276;2023-06-14T00:28:14;101177.56;;;23.06;37.82
64739;BME280;51175;51.186;0.276;2023-06-14T00:28:44;101177.56;;;23.06;37.85
64739;BME280;51175;51.186;0.276;2023-06-14T00:29:14;101171.38;;;23.06;37.89
64739;BME280;51175;51.186;0.276;2023-06-14T00:29:45;101174.88;;;23.06;38.09
64739;BME280;51175;51.186;0.276;2023-06-14T00:30:15;101175.22;;;23.05;37.77
64739;BME280;51175;51.186;0.276;2023-06-14T00:30:46;101171.72;;;23.04;37.90
64739;BME280;51175;51.186;0.276;2023-06-14T00:31:16;101174.41;;;23.04;37.98
64739;BME280;51175;51.186;0.276;2023-06-14T00:31:47;101175.53;;;23.03;38.22
64739;BME280;51175;51.186;0.276;2023-06-14T00:32:18;101173.97;;;23.02;37.98
64739;BME280;51175;51.186;0.276;2023-06-14T00:32:49;101180.94;;;23.03;37.92
64739;BME280;51175;51.186;0.276;2023-06-14T00:33:20;101180.94;;;23.03;37.80
64739;BME280;51175;51.186;0.276;2023-06-14T00:33:50;101182.06;;;23.02;37.85
64739;BME280;51175;51.186;0.276;2023-06-14T00:34:20;101175.06;;;23.01;37.90
64739;BME280;51175;51.186;0.276;2023-06-14T00:34:51;101176.66;;;23.02;37.81
64739;BME280;51175;51.186;0.276;2023-06-14T00:35:22;101180.47;;;23.01;37.90
64739;BME280;51175;51.186;0.276;2023-06-14T00:35:52;101172.38;;;23.01;37.74
64739;BME280;51175;51.186;0.276;2023-06-14T00:36:25;101172.38;;;23.01;37.84
64739;BME280;51175;51.186;0.276;2023-06-14T00:36:56;101177.00;;;23.01;38.08
64739;BME280;51175;51.186;0.276;2023-06-14T00:37:26;101171.59;;;23.01;38.00
64739;BME280;51175;51.186;0.276;2023-06-14T00:37:56;101172.69;;;23.00;38.17
64739;BME280;51175;51.186;0.276;2023-06-14T00:38:27;101180.78;;;23.00;37.98
64739;BME280;51175;51.186;0.276;2023-06-14T00:38:57;101173.50;;;23.00;37.95
64739;BME280;51175;51.186;0.276;2023-06-14T00:39:28;101176.19;;;23.00;37.97
64739;BME280;51175;51.186;0.276;2023-06-14T00:39:58;101177.28;;;22.99;38.28
64739;BME280;51175;51.186;0.276;2023-06-14T00:40:28;101178.09;;;23.00;37.76
64739;BME280;51175;51.186;0.276;2023-06-14T00:40:59;101173.84;;;22.99;37.79
64739;BME280;51175;51.186;0.276;2023-06-14T00:41:30;101173.03;;;22.98;37.88
64739;BME280;51175;51.186;0.276;2023-06-14T00:42:00;101173.03;;;22.98;38.11
64739;BME280;51175;51.186;0.276;2023-06-14T00:42:30;101170.66;;;22.97;37.95
64739;BME280;51175;51.186;0.276;2023-06-14T00:43:01;101175.25;;;22.96;38.01
64739;BME280;51175;51.186;0.276;2023-06-14T00:43:31;101175.25;;;22.96;37.99
64739;BME280;51175;51.186;0.276;2023-06-14T00:44:02;101173.69;;;22.95;37.75
64739;BME280;51175;51.186;0.276;2023-06-14T00:44:33;101173.69;;;22.95;37.95
64739;BME280;51175;51.186;0.276;2023-06-14T00:45:04;101171.00;;;22.95;37.54
64739;BME280;51175;51.186;0.276;2023-06-14T00:45:34;101172.88;;;22.94;37.68
64739;BME280;51175;51.186;0.276;2023-06-14T00:46:06;101172.13;;;22.94;37.95
64739;BME280;51175;51.186;0.276;2023-06-14T00:46:36;101176.72;;;22.93;37.99
64739;BME280;51175;51.186;0.276;2023-06-14T00:47:06;101168.63;;;22.93;37.78
64739;BME280;51175;51.186;0.276;2023-06-14T00:47:38;101172.44;;;22.92;38.01
64739;BME280;51175;51.186;0.276;2023-06-14T00:48:11;101176.72;;;22.93;37.92
64739;BME280;51175;51.186;0.276;2023-06-14T00:48:43;101175.16;;;22.92;37.88
64739;BME280;51175;51.186;0.276;2023-06-14T00:49:14;101174.34;;;22.92;37.76
64739;BME280;51175;51.186;0.276;2023-06-14T00:49:47;101174.34;;;22.92;37.67
64739;BME280;51175;51.186;0.276;2023-06-14T00:50:18;101179.72;;;22.92;37.72
64739;BME280;51175;51.186;0.276;2023-06-14T00:50:51;101183.22;;;22.92;37.72
64739;BME280;51175;51.186;0.276;2023-06-14T00:51:22;101181.63;;;22.91;37.82
64739;BME280;51175;51.186;0.276;2023-06-14T00:51:53;101184.31;;;22.91;37.65
64739;BME280;51175;51.186;0.276;2023-06-14T00:52:23;101180.84;;;22.91;37.97
64739;BME280;51175;51.186;0.276;2023-06-14T00:52:57;101182.75;;;22.90;37.75
64739;BME280;51175;51.186;0.276;2023-06-14T00:53:34;101177.69;;;22.89;37.90
64739;BME280;51175;51.186;0.276;2023-06-14T00:54:05;101183.88;;;22.89;38.13
64739;BME280;51175;51.186;0.276;2023-06-14T00:54:36;101181.50;;;22.88;37.75
64739;BME280;51175;51.186;0.276;2023-06-14T00:55:06;101181.50;;;22.88;38.10
64739;BME280;51175;51.186;0.276;2023-06-14T00:55:37;101178.81;;;22.88;37.88
64739;BME280;51175;51.186;0.276;2023-06-14T00:56:07;101179.91;;;22.87;37.79
64739;BME280;51175;51.186;0.276;2023-06-14T00:56:39;101186.09;;;22.87;37.96
64739;BME280;51175;51.186;0.276;2023-06-14T00:57:10;101185.31;;;22.87;37.77
64739;BME280;51175;51.186;0.276;2023-06-14T00:57:41;101184.53;;;22.86;37.72
64739;BME280;51175;51.186;0.276;2023-06-14T00:58:12;101176.44;;;22.86;37.81
64739;BME280;51175;51.186;0.276;2023-06-14T00:58:43;101180.25;;;22.85;37.99
64739;BME280;51175;51.186;0.276;2023-06-14T00:59:13;101186.44;;;22.86;38.04
64739;BME280;51175;51.186;0.276;2023-06-14T00:59:47;101179.16;;;22.86;38.24
64739;BME280;51175;51.186;0.276;2023-06-14T01:00:18;101181.38;;;22.84;37.99
64739;BME280;51175;51.186;0.276;2023-06-14T01:00:48;101181.38;;;22.84;38.42
64739;BME280;51175;51.186;0.276;2023-06-14T01:01:18;101178.69;;;22.84;38.20
64739;BME280;51175;51.186;0.276;2023-06-14T01:01:49;101178.69;;;22.84;38.51
64739;BME280;51175;51.186;0.276;2023-06-14T01:02:19;101177.88;;;22.84;38.19
64739;BME280;51175;51.186;0.276;2023-06-14T01:02:50;101173.63;;;22.82;38.22
64739;BME280;51175;51.186;0.276;2023-06-14T01:03:20;101178.19;;;22.82;38.05
64739;BME280;51175;51.186;0.276;2023-06-14T01:03:52;101169.34;;;22.81;38.21
64739;BME280;51175;51.186;0.276;2023-06-14T01:04:23;101172.06;;;22.81;38.15
64739;BME280;51175;51.186;0.276;2023-06-14T01:04:53;101174.75;;;22.81;38.22
64739;BME280;51175;51.186;0.276;2023-06-14T01:05:24;101171.25;;;22.81;38.40
64739;BME280;51175;51.186;0.276;2023-06-14T01:06:18;101171.25;;;22.81;38.29
64739;BME280;51175;51.186;0.276;2023-06-14T01:07:23;101176.97;;;22.79;38.38
64739;BME280;51175;51.186;0.276;2023-06-14T01:10:50;101167.03;;;22.71;38.37
64739;BME280;51175;51.186;0.276;2023-06-14T01:11:28;101174.34;;;22.71;38.51
64739;BME280;51175;51.186;0.276;2023-06-14T01:12:24;101178.13;;;22.69;38.60
64739;BME280;51175;51.186;0.276;2023-06-14T01:13:54;101169.59;;;22.67;38.62
64739;BME280;51175;51.186;0.276;2023-06-14T01:14:27;101176.09;;;22.66;38.49
64739;BME280;51175;51.186;0.276;2023-06-14T01:14:59;101181.47;;;22.66;38.68
64739;BME280;51175;51.186;0.276;2023-06-14T01:15:31;101172.59;;;22.66;38.74
64739;BME280;51175;51.186;0.276;2023-06-14T01:16:02;101171.81;;;22.65;38.59
64739;BME280;51175;51.186;0.276;2023-06-14T01:16:33;101180.66;;;22.66;38.84
64739;BME280;51175;51.186;0.276;2023-06-14T01:17:09;101179.91;;;22.65;38.82
64739;BME280;51175;51.186;0.276;2023-06-14T01:17:49;101181.78;;;22.65;38.60
64739;BME280;51175;51.186;0.276;2023-06-14T01:18:22;101173.72;;;22.65;38.74
64739;BME280;51175;51.186;0.276;2023-06-14T01:18:54;101169.13;;;22.65;38.66
64739;BME280;51175;51.186;0.276;2023-06-14T01:19:26;101177.22;;;22.65;38.65
64739;BME280;51175;51.186;0.276;2023-06-14T01:20:07;101180.66;;;22.66;38.66
64739;BME280;51175;51.186;0.276;2023-06-14T01:20:40;101183.38;;;22.66;38.77
64739;BME280;51175;51.186;0.276;2023-06-14T01:21:24;101177.97;;;22.66;38.93
64739;BME280;51175;51.186;0.276;2023-06-14T01:21:57;101184.50;;;22.65;38.92
64739;BME280;51175;51.186;0.276;2023-06-14T01:22:30;101179.09;;;22.65;38.80
64739;BME280;51175;51.186;0.276;2023-06-14T01:23:01;101171.81;;;22.65;38.75
64739;BME280;51175;51.186;0.276;2023-06-14T01:23:32;101179.09;;;22.65;39.00
64739;BME280;51175;51.186;0.276;2023-06-14T01:24:03;101177.97;;;22.66;38.73
64739;BME280;51175;51.186;0.276;2023-06-14T01:24:34;101172.59;;;22.66;38.83
64739;BME280;51175;51.186;0.276;2023-06-14T01:25:05;101181.47;;;22.66;38.88
64739;BME280;51175;51.186;0.276;2023-06-14T01:25:35;101178.78;;;22.66;38.99
64739;BME280;51175;51.186;0.276;2023-06-14T01:26:07;101177.97;;;22.66;38.90
64739;BME280;51175;51.186;0.276;2023-06-14T01:26:38;101179.91;;;22.65;39.11
64739;BME280;51175;51.186;0.276;2023-06-14T01:27:09;101177.97;;;22.66;38.82
64739;BME280;51175;51.186;0.276;2023-06-14T01:27:41;101175.28;;;22.66;38.99
64739;BME280;51175;51.186;0.276;2023-06-14T01:28:12;101176.41;;;22.65;39.11
64739;BME280;51175;51.186;0.276;2023-06-14T01:28:43;101179.09;;;22.65;39.08
64739;BME280;51175;51.186;0.276;2023-06-14T01:29:14;101179.09;;;22.65;38.80
64739;BME280;51175;51.186;0.276;2023-06-14T01:29:51;101176.41;;;22.65;38.73
64739;BME280;51175;51.186;0.276;2023-06-14T01:30:27;101176.41;;;22.65;38.94
64739;BME280;51175;51.186;0.276;2023-06-14T01:31:00;101179.91;;;22.65;39.09
64739;BME280;51175;51.186;0.276;2023-06-14T01:31:34;101171.03;;;22.65;38.92
64739;BME280;51175;51.186;0.276;2023-06-14T01:32:11;101175.63;;;22.64;38.98
64739;BME280;51175;51.186;0.276;2023-06-14T01:32:42;101174.03;;;22.63;39.01
64739;BME280;51175;51.186;0.276;2023-06-14T01:33:19;101173.25;;;22.63;38.96
64739;BME280;51175;51.186;0.276;2023-06-14T01:33:50;101169.78;;;22.62;39.15
64739;BME280;51175;51.186;0.276;2023-06-14T01:34:21;101173.25;;;22.63;39.08
64739;BME280;51175;51.186;0.276;2023-06-14T01:34:52;101174.38;;;22.62;39.00
64739;BME280;51175;51.186;0.276;2023-06-14T01:35:22;101171.69;;;22.62;39.07
64739;BME280;51175;51.186;0.276;2023-06-14T01:35:53;101177.06;;;22.62;39.11
64739;BME280;51175;51.186;0.276;2023-06-14T01:36:26;101166.63;;;22.60;38.92
64739;BME280;51175;51.186;0.276;2023-06-14T01:37:00;101169.31;;;22.60;38.76
64739;BME280;51175;51.186;0.276;2023-06-14T01:37:31;101173.13;;;22.59;38.76
64739;BME280;51175;51.186;0.276;2023-06-14T01:38:02;101169.59;;;22.58;38.52
64739;BME280;51175;51.186;0.276;2023-06-14T01:38:33;101169.59;;;22.58;38.86
64739;BME280;51175;51.186;0.276;2023-06-14T01:39:05;101172.63;;;22.57;38.44
64739;BME280;51175;51.186;0.276;2023-06-14T01:39:35;101169.13;;;22.56;38.68
64739;BME280;51175;51.186;0.276;2023-06-14T01:40:07;101169.94;;;22.57;38.81
64739;BME280;51175;51.186;0.276;2023-06-14T01:40:38;101179.13;;;22.56;38.85
64739;BME280;51175;51.186;0.276;2023-06-14T01:41:09;101169.13;;;22.56;38.74
64739;BME280;51175;51.186;0.276;2023-06-14T01:41:42;101165.69;;;22.56;39.04
64739;BME280;51175;51.186;0.276;2023-06-14T01:42:13;101174.53;;;22.56;39.07
64739;BME280;51175;51.186;0.276;2023-06-14T01:42:46;101167.56;;;22.55;38.88
64739;BME280;51175;51.186;0.276;2023-06-14T01:43:18;101165.69;;;22.56;39.04
64739;BME280;51175;51.186;0.276;2023-06-14T01:43:50;101174.53;;;22.56;39.21
64739;BME280;51175;51.186;0.276;2023-06-14T01:44:23;101169.47;;;22.55;39.16
64739;BME280;51175;51.186;0.276;2023-06-14T01:44:54;101168.69;;;22.54;38.97
64739;BME280;51175;51.186;0.276;2023-06-14T01:45:25;101174.06;;;22.54;39.09
64739;BME280;51175;51.186;0.276;2023-06-14T01:45:57;101167.91;;;22.54;39.08
64739;BME280;51175;51.186;0.276;2023-06-14T01:46:29;101171.38;;;22.54;39.12
64739;BME280;51175;51.186;0.276;2023-06-14T01:46:59;101175.16;;;22.53;39.18
64739;BME280;51175;51.186;0.276;2023-06-14T01:47:30;101171.38;;;22.54;39.25
64739;BME280;51175;51.186;0.276;2023-06-14T01:48:01;101168.22;;;22.52;38.97
64739;BME280;51175;51.186;0.276;2023-06-14T01:48:32;101177.84;;;22.53;39.05
64739;BME280;51175;51.186;0.276;2023-06-14T01:49:02;101165.53;;;22.52;39.28
64739;BME280;51175;51.186;0.276;2023-06-14T01:49:34;101167.41;;;22.52;39.28
64739;BME280;51175;51.186;0.276;2023-06-14T01:50:05;101166.66;;;22.51;39.00
64739;BME280;51175;51.186;0.276;2023-06-14T01:50:36;101172.03;;;22.51;38.98
64739;BME280;51175;51.186;0.276;2023-06-14T01:51:06;101168.88;;;22.49;39.02
64739;BME280;51175;51.186;0.276;2023-06-14T01:51:37;101161.91;;;22.48;39.27
64739;BME280;51175;51.186;0.276;2023-06-14T01:52:07;101166.19;;;22.49;39.22
64739;BME280;51175;51.186;0.276;2023-06-14T01:52:39;101170.75;;;22.49;39.25
64739;BME280;51175;51.186;0.276;2023-06-14T01:53:10;101169.66;;;22.50;39.18
64739;BME280;51175;51.186;0.276;2023-06-14T01:53:41;101172.69;;;22.48;39.55
64739;BME280;51175;51.186;0.276;2023-06-14T01:54:11;101172.69;;;22.48;39.27
64739;BME280;51175;51.186;0.276;2023-06-14T01:54:42;101169.19;;;22.48;39.45
64739;BME280;51175;51.186;0.276;2023-06-14T01:55:12;101161.91;;;22.48;39.38
64739;BME280;51175;51.186;0.276;2023-06-14T01:55:43;101165.72;;;22.47;39.58
64739;BME280;51175;51.186;0.276;2023-06-14T01:56:14;101166.50;;;22.48;39.29
64739;BME280;51175;51.186;0.276;2023-06-14T01:56:45;101166.50;;;22.48;39.26
64739;BME280;51175;51.186;0.276;2023-06-14T01:57:15;101171.88;;;22.48;39.48
64739;BME280;51175;51.186;0.276;2023-06-14T01:57:45;101177.28;;;22.48;39.02
64739;BME280;51175;51.186;0.276;2023-06-14T01:58:16;101176.47;;;22.47;39.34
64739;BME280;51175;51.186;0.276;2023-06-14T01:58:46;101168.41;;;22.47;39.23
64739;BME280;51175;51.186;0.276;2023-06-14T01:59:18;101156.88;;;22.47;39.37
64739;BME280;51175;51.186;0.276;2023-06-14T01:59:48;101164.13;;;22.46;39.70
64739;BME280;51175;51.186;0.276;2023-06-14T02:00:20;101162.25;;;22.47;39.33
64739;BME280;51175;51.186;0.276;2023-06-14T02:00:51;101162.56;;;22.45;39.59
64739;BME280;51175;51.186;0.276;2023-06-14T02:01:25;101167.16;;;22.44;39.67
64739;BME280;51175;51.186;0.276;2023-06-14T02:01:56;101159.88;;;22.45;39.81
64739;BME280;51175;51.186;0.276;2023-06-14T02:02:27;101160.97;;;22.44;39.88
64739;BME280;51175;51.186;0.276;2023-06-14T02:03:00;101162.09;;;22.43;39.97
64739;BME280;51175;51.186;0.276;2023-06-14T02:03:30;101157.50;;;22.43;39.85
64739;BME280;51175;51.186;0.276;2023-06-14T02:04:01;101158.59;;;22.42;39.93
64739;BME280;51175;51.186;0.276;2023-06-14T02:04:32;101164.78;;;22.43;39.71
64739;BME280;51175;51.186;0.276;2023-06-14T02:05:02;101164.00;;;22.42;39.78
64739;BME280;51175;51.186;0.276;2023-06-14T02:05:33;101157.84;;;22.42;39.69
64739;BME280;51175;51.186;0.276;2023-06-14T02:06:04;101156.25;;;22.41;39.81
64739;BME280;51175;51.186;0.276;2023-06-14T02:06:35;101157.84;;;22.42;39.75
64739;BME280;51175;51.186;0.276;2023-06-14T02:07:05;101154.66;;;22.40;40.12
64739;BME280;51175;51.186;0.276;2023-06-14T02:07:36;101155.47;;;22.40;39.98
64739;BME280;51175;51.186;0.276;2023-06-14T02:08:06;101164.63;;;22.39;39.94
64739;BME280;51175;51.186;0.276;2023-06-14T02:08:37;101159.25;;;22.39;39.73
64739;BME280;51175;51.186;0.276;2023-06-14T02:09:08;101161.19;;;22.39;40.14
64739;BME280;51175;51.186;0.276;2023-06-14T02:09:38;101157.69;;;22.38;40.11
64739;BME280;51175;51.186;0.276;2023-06-14T02:10:11;101161.50;;;22.37;40.01
64739;BME280;51175;51.186;0.276;2023-06-14T02:10:41;101159.13;;;22.36;40.12
64739;BME280;51175;51.186;0.276;2023-06-14T02:11:12;101155.31;;;22.37;39.90
64739;BME280;51175;51.186;0.276;2023-06-14T02:11:42;101154.53;;;22.36;40.28
64739;BME280;51175;51.186;0.276;2023-06-14T02:12:12;101154.53;;;22.36;40.11
64739;BME280;51175;51.186;0.276;2023-06-14T02:12:43;101154.53;;;22.36;40.16
64739;BME280;51175;51.186;0.276;2023-06-14T02:13:14;101155.66;;;22.35;40.41
64739;BME280;51175;51.186;0.276;2023-06-14T02:13:44;101155.66;;;22.35;40.36
64739;BME280;51175;51.186;0.276;2023-06-14T02:14:15;101152.16;;;22.35;40.33
64739;BME280;51175;51.186;0.276;2023-06-14T02:14:46;101156.44;;;22.36;40.28
64739;BME280;51175;51.186;0.276;2023-06-14T02:15:18;101149.47;;;22.35;40.21
64739;BME280;51175;51.186;0.276;2023-06-14T02:15:49;101157.53;;;22.35;40.20
64739;BME280;51175;51.186;0.276;2023-06-14T02:16:23;101153.28;;;22.33;40.43
64739;BME280;51175;51.186;0.276;2023-06-14T02:16:54;101154.06;;;22.34;40.29
64739;BME280;51175;51.186;0.276;2023-06-14T02:17:25;101149.00;;;22.32;40.40
64739;BME280;51175;51.186;0.276;2023-06-14T02:17:56;101151.69;;;22.32;40.36
64739;BME280;51175;51.186;0.276;2023-06-14T02:18:26;101148.22;;;22.32;40.41
64739;BME280;51175;51.186;0.276;2023-06-14T02:18:57;101156.28;;;22.32;40.30
64739;BME280;51175;51.186;0.276;2023-06-14T02:19:28;101158.97;;;22.32;40.53
64739;BME280;51175;51.186;0.276;2023-06-14T02:19:58;101148.22;;;22.32;40.49
64739;BME280;51175;51.186;0.276;2023-06-14T02:20:29;101150.13;;;22.31;40.57
64739;BME280;51175;51.186;0.276;2023-06-14T02:21:00;101151.25;;;22.30;40.80
64739;BME280;51175;51.186;0.276;2023-06-14T02:21:30;101156.63;;;22.30;40.53
64739;BME280;51175;51.186;0.276;2023-06-14T02:22:01;101151.25;;;22.30;40.42
64739;BME280;51175;51.186;0.276;2023-06-14T02:22:31;101148.53;;;22.30;40.38
64739;BME280;51175;51.186;0.276;2023-06-14T02:23:01;101149.31;;;22.31;40.52
64739;BME280;51175;51.186;0.276;2023-06-14T02:23:32;101151.25;;;22.30;40.52
64739;BME280;51175;51.186;0.276;2023-06-14T02:24:03;101150.44;;;22.30;40.45
64739;BME280;51175;51.186;0.276;2023-06-14T02:24:33;101153.13;;;22.30;40.81
64739;BME280;51175;51.186;0.276;2023-06-14T02:25:04;101155.81;;;22.30;40.78
64739;BME280;51175;51.186;0.276;2023-06-14T02:25:34;101159.63;;;22.29;40.88
64739;BME280;51175;51.186;0.276;2023-06-14T02:26:05;101156.94;;;22.29;40.76
64739;BME280;51175;51.186;0.276;2023-06-14T02:26:36;101152.66;;;22.28;40.67
64739;BME280;51175;51.186;0.276;2023-06-14T02:27:08;101156.94;;;22.29;40.87
64739;BME280;51175;51.186;0.276;2023-06-14T02:27:40;101146.50;;;22.27;40.90
64739;BME280;51175;51.186;0.276;2023-06-14T02:28:10;101158.34;;;22.26;40.86
64739;BME280;51175;51.186;0.276;2023-06-14T02:28:41;101146.81;;;22.26;41.24
64739;BME280;51175;51.186;0.276;2023-06-14T02:29:11;101151.41;;;22.25;41.08
64739;BME280;51175;51.186;0.276;2023-06-14T02:29:44;101147.16;;;22.24;40.96
64739;BME280;51175;51.186;0.276;2023-06-14T02:30:15;101152.53;;;22.24;41.02
64739;BME280;51175;51.186;0.276;2023-06-14T02:30:46;101145.56;;;22.23;41.19
64739;BME280;51175;51.186;0.276;2023-06-14T02:31:16;101150.94;;;22.23;41.33
64739;BME280;51175;51.186;0.276;2023-06-14T02:31:46;101152.84;;;22.23;41.29
64739;BME280;51175;51.186;0.276;2023-06-14T02:32:18;101149.38;;;22.22;41.14
64739;BME280;51175;51.186;0.276;2023-06-14T02:32:49;101144.00;;;22.22;41.36
64739;BME280;51175;51.186;0.276;2023-06-14T02:33:21;101155.53;;;22.23;41.50
64739;BME280;51175;51.186;0.276;2023-06-14T02:33:52;101146.69;;;22.22;41.45
64739;BME280;51175;51.186;0.276;2023-06-14T02:34:22;101153.94;;;22.22;41.28
64739;BME280;51175;51.186;0.276;2023-06-14T02:34:53;101141.28;;;22.22;41.13
64739;BME280;51175;51.186;0.276;2023-06-14T02:35:23;101151.25;;;22.22;41.42
64739;BME280;51175;51.186;0.276;2023-06-14T02:35:57;101149.69;;;22.20;41.51
64739;BME280;51175;51.186;0.276;2023-06-14T02:36:28;101150.50;;;22.21;41.71
64739;BME280;51175;51.186;0.276;2023-06-14T02:37:02;101147.00;;;22.20;41.37
64739;BME280;51175;51.186;0.276;2023-06-14T02:37:35;101146.19;;;22.20;41.54
64739;BME280;51175;51.186;0.276;2023-06-14T02:38:06;101147.00;;;22.20;41.44
64739;BME280;51175;51.186;0.276;2023-06-14T02:38:36;101139.25;;;22.19;41.51
64739;BME280;51175;51.186;0.276;2023-06-14T02:39:07;101138.47;;;22.18;41.52
64739;BME280;51175;51.186;0.276;2023-06-14T02:39:39;101130.38;;;22.18;41.61
64739;BME280;51175;51.186;0.276;2023-06-14T02:40:10;101137.69;;;22.18;41.74
64739;BME280;51175;51.186;0.276;2023-06-14T02:40:40;101136.88;;;22.17;41.66
64739;BME280;51175;51.186;0.276;2023-06-14T02:41:12;101136.88;;;22.17;41.72
64739;BME280;51175;51.186;0.276;2023-06-14T02:41:42;101136.88;;;22.17;41.85
64739;BME280;51175;51.186;0.276;2023-06-14T02:42:13;101131.84;;;22.16;41.85
64739;BME280;51175;51.186;0.276;2023-06-14T02:42:43;101134.53;;;22.16;41.81
64739;BME280;51175;51.186;0.276;2023-06-14T02:43:14;101139.09;;;22.15;41.99
64739;BME280;51175;51.186;0.276;2023-06-14T02:43:45;101139.09;;;22.15;41.93
64739;BME280;51175;51.186;0.276;2023-06-14T02:44:17;101143.72;;;22.15;41.65
64739;BME280;51175;51.186;0.276;2023-06-14T02:44:48;101141.78;;;22.15;42.15
64739;BME280;51175;51.186;0.276;2023-06-14T02:45:21;101137.53;;;22.14;41.93
64739;BME280;51175;51.186;0.276;2023-06-14T02:45:51;101132.16;;;22.14;41.80
64739;BME280;51175;51.186;0.276;2023-06-14T02:46:22;101140.22;;;22.14;42.02
64739;BME280;51175;51.186;0.276;2023-06-14T02:46:53;101139.44;;;22.14;42.25
64739;BME280;51175;51.186;0.276;2023-06-14T02:47:24;101140.22;;;22.14;42.15
64739;BME280;51175;51.186;0.276;2023-06-14T02:47:54;101136.75;;;22.14;41.92
64739;BME280;51175;51.186;0.276;2023-06-14T02:48:25;101140.56;;;22.13;42.26
64739;BME280;51175;51.186;0.276;2023-06-14T02:48:56;101137.06;;;22.12;42.18